sensor_id;sensor_type;location;lat;lon;timestamp;pressure;altitude;pressure_sealevel;temperature;humidity
19508;BME280;40157;42.566;27.526;2023-04-20T00:01:20;100520.97;;;12.45;89.26
19508;BME280;40157;42.566;27.526;2023-04-20T00:03:20;100511.28;;;12.34;89.41
19508;BME280;40157;42.566;27.526;2023-04-20T00:05:21;100515.72;;;12.49;89.18
19508;BME280;40157;42.566;27.526;2023-04-20T00:07:22;100504.28;;;12.39;89.13
19508;BME280;40157;42.566;27.526;2023-04-20T00:09:25;100489.38;;;12.42;89.03
19508;BME280;40157;42.566;27.526;2023-04-20T00:11:26;100476.19;;;12.35;88.70
19508;BME280;40157;42.566;27.526;2023-04-20T00:13:27;100518.41;;;12.60;88.61
19508;BME280;40157;42.566;27.526;2023-04-20T00:15:27;100492.06;;;12.51;88.55
19508;BME280;40157;42.566;27.526;2023-04-20T00:17:29;100521.91;;;12.65;88.37
19508;BME280;40157;42.566;27.526;2023-04-20T00:19:30;100514.94;;;12.66;88.19
19508;BME280;40157;42.566;27.526;2023-04-20T00:21:33;100512.31;;;12.66;88.19
19508;BME280;40157;42.566;27.526;2023-04-20T00:23:33;100506.97;;;12.53;88.22
19508;BME280;40157;42.566;27.526;2023-04-20T00:25:33;100514.88;;;12.55;88.29
19508;BME280;40157;42.566;27.526;2023-04-20T00:27:34;100505.19;;;12.48;88.59
19508;BME280;40157;42.566;27.526;2023-04-20T00:29:34;100434.88;;;12.05;88.32
19508;BME280;40157;42.566;27.526;2023-04-20T00:31:35;100521.91;;;12.56;88.59
19508;BME280;40157;42.566;27.526;2023-04-20T00:33:36;100506.94;;;12.50;88.79
19508;BME280;40157;42.566;27.526;2023-04-20T00:35:36;100483.25;;;12.39;88.94
19508;BME280;40157;42.566;27.526;2023-04-20T00:37:36;100505.16;;;12.43;89.06
19508;BME280;40157;42.566;27.526;2023-04-20T00:39:37;100423.44;;;11.95;89.01
19508;BME280;40157;42.566;27.526;2023-04-20T00:41:37;100484.09;;;12.29;89.46
19508;BME280;40157;42.566;27.526;2023-04-20T00:43:48;100474.38;;;12.19;89.75
19508;BME280;40157;42.566;27.526;2023-04-20T00:45:49;100489.28;;;12.21;90.14
19508;BME280;40157;42.566;27.526;2023-04-20T00:47:51;100497.19;;;12.26;90.49
19508;BME280;40157;42.566;27.526;2023-04-20T00:49:51;100477.84;;;12.15;90.31
19508;BME280;40157;42.566;27.526;2023-04-20T00:51:52;100467.25;;;11.99;90.81
19508;BME280;40157;42.566;27.526;2023-04-20T00:53:53;100469.00;;;11.97;91.62
19508;BME280;40157;42.566;27.526;2023-04-20T00:55:53;100447.97;;;11.94;91.45
19508;BME280;40157;42.566;27.526;2023-04-20T00:57:53;100471.69;;;12.10;91.32
19508;BME280;40157;42.566;27.526;2023-04-20T00:59:54;100494.53;;;12.20;91.29
19508;BME280;40157;42.566;27.526;2023-04-20T01:01:54;100458.50;;;12.00;91.25
19508;BME280;40157;42.566;27.526;2023-04-20T01:03:55;100479.59;;;12.11;91.18
19508;BME280;40157;42.566;27.526;2023-04-20T01:05:56;100469.97;;;12.12;90.96
19508;BME280;40157;42.566;27.526;2023-04-20T01:07:56;100503.38;;;12.33;90.96
19508;BME280;40157;42.566;27.526;2023-04-20T01:09:57;100509.53;;;12.39;90.59
19508;BME280;40157;42.566;27.526;2023-04-20T01:11:57;100500.75;;;12.40;90.19
19508;BME280;40157;42.566;27.526;2023-04-20T01:13:58;100512.19;;;12.44;90.15
19508;BME280;40157;42.566;27.526;2023-04-20T01:15:58;100493.75;;;12.39;89.86
19508;BME280;40157;42.566;27.526;2023-04-20T01:18:02;100406.72;;;11.81;89.70
19508;BME280;40157;42.566;27.526;2023-04-20T01:20:09;100504.31;;;12.46;89.69
19508;BME280;40157;42.566;27.526;2023-04-20T01:22:16;100476.22;;;12.38;89.65
19508;BME280;40157;42.566;27.526;2023-04-20T01:24:17;100483.28;;;12.46;89.23
19508;BME280;40157;42.566;27.526;2023-04-20T01:26:19;100472.72;;;12.36;89.03
19508;BME280;40157;42.566;27.526;2023-04-20T01:28:19;100493.81;;;12.46;89.18
19508;BME280;40157;42.566;27.526;2023-04-20T01:30:20;100504.31;;;12.46;89.19
19508;BME280;40157;42.566;27.526;2023-04-20T01:32:21;100465.69;;;12.32;89.00
19508;BME280;40157;42.566;27.526;2023-04-20T01:34:21;100485.88;;;12.41;88.99
19508;BME280;40157;42.566;27.526;2023-04-20T01:36:22;100494.69;;;12.46;89.19
19508;BME280;40157;42.566;27.526;2023-04-20T01:38:23;100496.41;;;12.41;89.44
19508;BME280;40157;42.566;27.526;2023-04-20T01:40:24;100492.00;;;12.42;89.61
19508;BME280;40157;42.566;27.526;2023-04-20T01:42:24;100384.81;;;11.85;89.40
19508;BME280;40157;42.566;27.526;2023-04-20T01:44:25;100409.38;;;11.90;89.80
19508;BME280;40157;42.566;27.526;2023-04-20T01:46:25;100427.00;;;12.07;89.71
19508;BME280;40157;42.566;27.526;2023-04-20T01:48:26;100487.59;;;12.34;89.75
19508;BME280;40157;42.566;27.526;2023-04-20T01:50:27;100376.00;;;11.72;89.99
19508;BME280;40157;42.566;27.526;2023-04-20T01:52:27;100415.56;;;11.98;89.96
19508;BME280;40157;42.566;27.526;2023-04-20T01:54:27;100470.97;;;12.32;89.99
19508;BME280;40157;42.566;27.526;2023-04-20T01:56:28;100467.44;;;12.33;89.75
19508;BME280;40157;42.566;27.526;2023-04-20T01:58:28;100442.84;;;12.22;89.92
19508;BME280;40157;42.566;27.526;2023-04-20T02:00:29;100356.72;;;11.67;89.92
19508;BME280;40157;42.566;27.526;2023-04-20T02:02:29;100453.34;;;12.16;90.03
19508;BME280;40157;42.566;27.526;2023-04-20T02:04:30;100425.25;;;12.01;90.27
19508;BME280;40157;42.566;27.526;2023-04-20T02:06:30;100434.00;;;12.05;90.31
19508;BME280;40157;42.566;27.526;2023-04-20T02:08:32;100445.47;;;12.17;90.31
19508;BME280;40157;42.566;27.526;2023-04-20T02:10:32;100442.81;;;12.13;90.28
19508;BME280;40157;42.566;27.526;2023-04-20T02:12:33;100391.81;;;11.83;90.39
19508;BME280;40157;42.566;27.526;2023-04-20T02:14:33;100453.34;;;12.19;90.35
19508;BME280;40157;42.566;27.526;2023-04-20T02:16:34;100459.53;;;12.29;90.12
19508;BME280;40157;42.566;27.526;2023-04-20T02:18:35;100456.91;;;12.24;90.19
19508;BME280;40157;42.566;27.526;2023-04-20T02:20:36;100470.88;;;12.20;90.36
19508;BME280;40157;42.566;27.526;2023-04-20T02:22:37;100460.34;;;12.15;90.43
19508;BME280;40157;42.566;27.526;2023-04-20T02:24:38;100439.19;;;11.95;90.44
19508;BME280;40157;42.566;27.526;2023-04-20T02:26:38;100473.47;;;12.17;90.10
19508;BME280;40157;42.566;27.526;2023-04-20T02:28:39;100440.16;;;12.08;89.85
19508;BME280;40157;42.566;27.526;2023-04-20T02:30:39;100448.91;;;12.09;89.67
19508;BME280;40157;42.566;27.526;2023-04-20T02:32:40;100411.94;;;11.78;89.47
19508;BME280;40157;42.566;27.526;2023-04-20T02:34:40;100470.84;;;12.14;89.28
19508;BME280;40157;42.566;27.526;2023-04-20T02:36:41;100453.28;;;12.07;89.29
19508;BME280;40157;42.566;27.526;2023-04-20T02:38:41;100477.88;;;12.18;89.53
19508;BME280;40157;42.566;27.526;2023-04-20T02:40:42;100478.78;;;12.23;89.30
19508;BME280;40157;42.566;27.526;2023-04-20T02:42:42;100463.88;;;12.16;88.93
19508;BME280;40157;42.566;27.526;2023-04-20T02:44:43;100382.06;;;11.62;88.83
19508;BME280;40157;42.566;27.526;2023-04-20T02:46:43;100457.66;;;12.05;89.28
19508;BME280;40157;42.566;27.526;2023-04-20T02:48:43;100460.25;;;11.98;89.24
19508;BME280;40157;42.566;27.526;2023-04-20T02:50:44;100400.47;;;11.65;89.13
19508;BME280;40157;42.566;27.526;2023-04-20T02:52:44;100449.72;;;11.97;89.21
19508;BME280;40157;42.566;27.526;2023-04-20T02:54:45;100435.69;;;11.92;89.21
19508;BME280;40157;42.566;27.526;2023-04-20T02:56:46;100455.03;;;12.06;89.51
19508;BME280;40157;42.566;27.526;2023-04-20T02:58:46;100468.19;;;12.08;89.35
19508;BME280;40157;42.566;27.526;2023-04-20T03:00:51;100462.09;;;12.15;89.25
19508;BME280;40157;42.566;27.526;2023-04-20T03:02:51;100446.25;;;12.06;89.23
19508;BME280;40157;42.566;27.526;2023-04-20T03:04:52;100462.13;;;12.18;89.29
19508;BME280;40157;42.566;27.526;2023-04-20T03:06:52;100437.50;;;12.03;88.74
19508;BME280;40157;42.566;27.526;2023-04-20T03:08:53;100433.00;;;11.90;88.66
19508;BME280;40157;42.566;27.526;2023-04-20T03:10:53;100474.34;;;12.13;88.42
19508;BME280;40157;42.566;27.526;2023-04-20T03:12:54;100435.63;;;11.90;88.53
19508;BME280;40157;42.566;27.526;2023-04-20T03:14:54;100469.91;;;12.06;88.61
19508;BME280;40157;42.566;27.526;2023-04-20T03:16:54;100447.06;;;11.94;88.48
19508;BME280;40157;42.566;27.526;2023-04-20T03:18:55;100373.19;;;11.43;88.48
19508;BME280;40157;42.566;27.526;2023-04-20T03:20:56;100439.19;;;11.92;88.64
19508;BME280;40157;42.566;27.526;2023-04-20T03:22:57;100465.59;;;12.11;88.64
19508;BME280;40157;42.566;27.526;2023-04-20T03:24:57;100487.41;;;12.00;88.91
19508;BME280;40157;42.566;27.526;2023-04-20T03:26:58;100462.00;;;11.96;88.89
19508;BME280;40157;42.566;27.526;2023-04-20T03:28:58;100462.81;;;11.91;88.87
19508;BME280;40157;42.566;27.526;2023-04-20T03:30:58;100358.16;;;11.20;89.04
19508;BME280;40157;42.566;27.526;2023-04-20T03:33:00;100448.63;;;11.70;89.28
19508;BME280;40157;42.566;27.526;2023-04-20T03:35:00;100438.16;;;11.72;89.26
19508;BME280;40157;42.566;27.526;2023-04-20T03:37:01;100440.72;;;11.65;89.35
19508;BME280;40157;42.566;27.526;2023-04-20T03:39:01;100424.03;;;11.57;89.38
19508;BME280;40157;42.566;27.526;2023-04-20T03:41:04;100431.94;;;11.60;89.49
19508;BME280;40157;42.566;27.526;2023-04-20T03:43:04;100438.03;;;11.53;89.87
19508;BME280;40157;42.566;27.526;2023-04-20T03:45:05;100449.38;;;11.49;90.04
19508;BME280;40157;42.566;27.526;2023-04-20T03:47:06;100442.38;;;11.51;90.13
19508;BME280;40157;42.566;27.526;2023-04-20T03:49:06;100425.66;;;11.38;90.43
19508;BME280;40157;42.566;27.526;2023-04-20T03:51:07;100373.78;;;11.05;90.36
19508;BME280;40157;42.566;27.526;2023-04-20T03:53:07;100461.69;;;11.56;90.48
19508;BME280;40157;42.566;27.526;2023-04-20T03:55:08;100453.72;;;11.48;90.71
19508;BME280;40157;42.566;27.526;2023-04-20T03:57:08;100466.81;;;11.45;90.81
19508;BME280;40157;42.566;27.526;2023-04-20T03:59:09;100477.41;;;11.53;90.86
19508;BME280;40157;42.566;27.526;2023-04-20T04:01:09;100441.31;;;11.29;90.99
19508;BME280;40157;42.566;27.526;2023-04-20T04:03:12;100477.38;;;11.50;91.11
19508;BME280;40157;42.566;27.526;2023-04-20T04:05:13;100437.72;;;11.15;91.27
19508;BME280;40157;42.566;27.526;2023-04-20T04:07:13;100463.22;;;11.29;91.37
19508;BME280;40157;42.566;27.526;2023-04-20T04:09:13;100442.19;;;11.28;91.11
19508;BME280;40157;42.566;27.526;2023-04-20T04:11:14;100435.13;;;11.22;91.11
19508;BME280;40157;42.566;27.526;2023-04-20T04:13:14;100465.88;;;11.34;91.25
19508;BME280;40157;42.566;27.526;2023-04-20T04:15:15;100443.97;;;11.27;90.95
19508;BME280;40157;42.566;27.526;2023-04-20T04:17:18;100473.88;;;11.48;90.96
19508;BME280;40157;42.566;27.526;2023-04-20T04:19:18;100467.69;;;11.41;90.95
19508;BME280;40157;42.566;27.526;2023-04-20T04:21:19;100475.63;;;11.49;90.87
19508;BME280;40157;42.566;27.526;2023-04-20T04:23:20;100482.59;;;11.47;90.94
19508;BME280;40157;42.566;27.526;2023-04-20T04:25:20;100493.16;;;11.55;90.85
19508;BME280;40157;42.566;27.526;2023-04-20T04:27:22;100465.09;;;11.44;90.93
19508;BME280;40157;42.566;27.526;2023-04-20T04:29:24;100483.53;;;11.55;90.73
19508;BME280;40157;42.566;27.526;2023-04-20T04:31:27;100473.94;;;11.59;90.61
19508;BME280;40157;42.566;27.526;2023-04-20T04:33:28;100458.13;;;11.48;90.65
19508;BME280;40157;42.566;27.526;2023-04-20T04:35:28;100460.75;;;11.51;90.67
19508;BME280;40157;42.566;27.526;2023-04-20T04:37:30;100499.44;;;11.75;90.62
19508;BME280;40157;42.566;27.526;2023-04-20T04:39:30;100461.66;;;11.53;90.41
19508;BME280;40157;42.566;27.526;2023-04-20T04:41:31;100398.47;;;11.28;90.21
19508;BME280;40157;42.566;27.526;2023-04-20T04:43:32;100484.59;;;11.76;90.08
19508;BME280;40157;42.566;27.526;2023-04-20T04:45:32;100428.28;;;11.40;90.21
19508;BME280;40157;42.566;27.526;2023-04-20T04:47:34;100474.97;;;11.78;89.90
19508;BME280;40157;42.566;27.526;2023-04-20T04:49:34;100482.91;;;11.84;89.83
19508;BME280;40157;42.566;27.526;2023-04-20T04:51:35;100475.00;;;11.79;89.56
19508;BME280;40157;42.566;27.526;2023-04-20T04:53:35;100439.00;;;11.64;89.22
19508;BME280;40157;42.566;27.526;2023-04-20T04:55:38;100463.56;;;11.73;89.26
19508;BME280;40157;42.566;27.526;2023-04-20T04:57:38;100474.97;;;11.76;89.59
19508;BME280;40157;42.566;27.526;2023-04-20T04:59:39;100484.66;;;11.88;89.94
19508;BME280;40157;42.566;27.526;2023-04-20T05:01:39;100481.19;;;11.89;89.68
19508;BME280;40157;42.566;27.526;2023-04-20T05:03:40;100500.56;;;12.03;89.94
19508;BME280;40157;42.566;27.526;2023-04-20T05:05:41;100444.31;;;11.77;91.18
19508;BME280;40157;42.566;27.526;2023-04-20T05:07:41;100469.00;;;11.94;92.07
19508;BME280;40157;42.566;27.526;2023-04-20T05:09:42;100506.84;;;12.30;91.31
19508;BME280;40157;42.566;27.526;2023-04-20T05:11:42;100511.28;;;12.37;91.80
19508;BME280;40157;42.566;27.526;2023-04-20T05:13:43;100498.13;;;12.33;91.10
19508;BME280;40157;42.566;27.526;2023-04-20T05:15:43;100508.66;;;12.44;90.64
19508;BME280;40157;42.566;27.526;2023-04-20T05:17:43;100515.75;;;12.58;90.17
19508;BME280;40157;42.566;27.526;2023-04-20T05:19:44;100527.25;;;12.76;89.86
19508;BME280;40157;42.566;27.526;2023-04-20T05:21:44;100529.88;;;12.85;89.07
19508;BME280;40157;42.566;27.526;2023-04-20T05:23:45;100524.69;;;12.96;88.63
19508;BME280;40157;42.566;27.526;2023-04-20T05:25:45;100482.53;;;12.77;88.21
19508;BME280;40157;42.566;27.526;2023-04-20T05:27:46;100490.44;;;12.81;87.24
19508;BME280;40157;42.566;27.526;2023-04-20T05:29:46;100499.22;;;12.93;86.72
19508;BME280;40157;42.566;27.526;2023-04-20T05:31:47;100487.81;;;12.91;86.83
19508;BME280;40157;42.566;27.526;2023-04-20T05:33:47;100515.03;;;13.10;87.21
19508;BME280;40157;42.566;27.526;2023-04-20T05:35:47;100512.41;;;13.09;87.34
19508;BME280;40157;42.566;27.526;2023-04-20T05:37:48;100513.31;;;13.19;87.12
19508;BME280;40157;42.566;27.526;2023-04-20T05:39:48;100513.41;;;13.34;86.34
19508;BME280;40157;42.566;27.526;2023-04-20T05:41:49;100509.00;;;13.33;85.74
19508;BME280;40157;42.566;27.526;2023-04-20T05:43:49;100513.38;;;13.43;85.60
19508;BME280;40157;42.566;27.526;2023-04-20T05:45:49;100509.00;;;13.42;85.31
19508;BME280;40157;42.566;27.526;2023-04-20T05:47:53;100515.16;;;13.44;85.66
19508;BME280;40157;42.566;27.526;2023-04-20T05:49:54;100489.69;;;13.34;86.72
19508;BME280;40157;42.566;27.526;2023-04-20T05:51:55;100510.75;;;13.48;87.09
19508;BME280;40157;42.566;27.526;2023-04-20T05:53:56;100497.56;;;13.40;87.46
19508;BME280;40157;42.566;27.526;2023-04-20T05:55:57;100494.06;;;13.38;87.93
19508;BME280;40157;42.566;27.526;2023-04-20T05:57:57;100507.25;;;13.47;88.16
19508;BME280;40157;42.566;27.526;2023-04-20T05:59:58;100497.59;;;13.46;88.49
19508;BME280;40157;42.566;27.526;2023-04-20T06:01:58;100482.69;;;13.39;88.48
19508;BME280;40157;42.566;27.526;2023-04-20T06:03:58;100446.63;;;13.18;88.98
19508;BME280;40157;42.566;27.526;2023-04-20T06:05:59;100478.28;;;13.38;89.14
19508;BME280;40157;42.566;27.526;2023-04-20T06:07:59;100492.31;;;13.43;89.32
19508;BME280;40157;42.566;27.526;2023-04-20T06:10:00;100474.75;;;13.33;88.38
19508;BME280;40157;42.566;27.526;2023-04-20T06:12:01;100516.03;;;13.62;87.80
19508;BME280;40157;42.566;27.526;2023-04-20T06:14:01;100527.44;;;13.73;87.70
19508;BME280;40157;42.566;27.526;2023-04-20T06:16:02;100501.97;;;13.54;86.77
19508;BME280;40157;42.566;27.526;2023-04-20T06:18:03;100508.13;;;13.68;86.90
19508;BME280;40157;42.566;27.526;2023-04-20T06:20:03;100527.44;;;13.68;87.19
19508;BME280;40157;42.566;27.526;2023-04-20T06:22:06;100525.69;;;13.63;87.21
19508;BME280;40157;42.566;27.526;2023-04-20T06:24:07;100522.19;;;13.64;87.56
19508;BME280;40157;42.566;27.526;2023-04-20T06:26:07;100531.84;;;13.82;87.63
19508;BME280;40157;42.566;27.526;2023-04-20T06:28:09;100501.97;;;13.84;87.25
19508;BME280;40157;42.566;27.526;2023-04-20T06:30:10;100481.78;;;13.71;85.21
19508;BME280;40157;42.566;27.526;2023-04-20T06:32:10;100520.41;;;14.03;83.76
19508;BME280;40157;42.566;27.526;2023-04-20T06:34:11;100536.22;;;14.09;83.37
19508;BME280;40157;42.566;27.526;2023-04-20T06:36:11;100512.50;;;14.06;82.92
19508;BME280;40157;42.566;27.526;2023-04-20T06:38:12;100483.50;;;14.01;82.67
19508;BME280;40157;42.566;27.526;2023-04-20T06:40:12;100542.28;;;14.42;82.54
19508;BME280;40157;42.566;27.526;2023-04-20T06:42:13;100510.69;;;14.25;82.48
19508;BME280;40157;42.566;27.526;2023-04-20T06:44:15;100544.97;;;14.36;80.89
19508;BME280;40157;42.566;27.526;2023-04-20T06:46:15;100545.78;;;14.50;80.73
19508;BME280;40157;42.566;27.526;2023-04-20T06:48:16;100523.88;;;14.36;80.04
19508;BME280;40157;42.566;27.526;2023-04-20T06:50:16;100515.91;;;14.43;79.06
19508;BME280;40157;42.566;27.526;2023-04-20T06:52:16;100558.09;;;14.62;78.07
19508;BME280;40157;42.566;27.526;2023-04-20T06:54:17;100481.69;;;14.30;77.63
19508;BME280;40157;42.566;27.526;2023-04-20T06:56:17;100530.84;;;14.61;77.58
19508;BME280;40157;42.566;27.526;2023-04-20T06:58:18;100500.06;;;14.50;77.58
19508;BME280;40157;42.566;27.526;2023-04-20T07:00:18;100543.97;;;14.80;77.73
19508;BME280;40157;42.566;27.526;2023-04-20T07:02:19;100541.31;;;14.86;77.61
19508;BME280;40157;42.566;27.526;2023-04-20T07:04:20;100543.00;;;14.93;76.55
19508;BME280;40157;42.566;27.526;2023-04-20T07:06:20;100541.22;;;15.02;76.26
19508;BME280;40157;42.566;27.526;2023-04-20T07:08:21;100563.13;;;15.21;76.20
19508;BME280;40157;42.566;27.526;2023-04-20T07:10:21;100535.06;;;15.01;74.43
19508;BME280;40157;42.566;27.526;2023-04-20T07:12:21;100564.03;;;15.15;74.56
19508;BME280;40157;42.566;27.526;2023-04-20T07:14:22;100577.13;;;15.33;74.88
19508;BME280;40157;42.566;27.526;2023-04-20T07:16:22;100483.22;;;14.85;74.49
19508;BME280;40157;42.566;27.526;2023-04-20T07:18:23;100551.63;;;15.32;74.17
19508;BME280;40157;42.566;27.526;2023-04-20T07:20:23;100567.47;;;15.35;73.63
19508;BME280;40157;42.566;27.526;2023-04-20T07:22:24;100557.75;;;15.36;73.91
19508;BME280;40157;42.566;27.526;2023-04-20T07:24:25;100555.97;;;15.41;74.33
19508;BME280;40157;42.566;27.526;2023-04-20T07:26:25;100530.53;;;15.22;73.38
19508;BME280;40157;42.566;27.526;2023-04-20T07:28:26;100524.41;;;15.20;71.58
19508;BME280;40157;42.566;27.526;2023-04-20T07:30:26;100582.22;;;15.69;70.54
19508;BME280;40157;42.566;27.526;2023-04-20T07:32:26;100579.63;;;15.55;69.20
19508;BME280;40157;42.566;27.526;2023-04-20T07:34:27;100516.44;;;15.27;69.65
19508;BME280;40157;42.566;27.526;2023-04-20T07:36:28;100567.25;;;15.65;69.69
19508;BME280;40157;42.566;27.526;2023-04-20T07:38:28;100568.94;;;15.80;69.75
19508;BME280;40157;42.566;27.526;2023-04-20T07:40:29;100568.94;;;15.77;70.10
19508;BME280;40157;42.566;27.526;2023-04-20T07:42:31;100567.06;;;15.94;69.45
19508;BME280;40157;42.566;27.526;2023-04-20T07:44:32;100513.53;;;15.64;69.00
19508;BME280;40157;42.566;27.526;2023-04-20T07:46:32;100523.13;;;15.71;68.73
19508;BME280;40157;42.566;27.526;2023-04-20T07:48:33;100493.19;;;15.79;68.49
19508;BME280;40157;42.566;27.526;2023-04-20T07:50:34;100542.25;;;16.07;67.99
19508;BME280;40157;42.566;27.526;2023-04-20T07:52:35;100567.66;;;16.25;68.05
19508;BME280;40157;42.566;27.526;2023-04-20T07:54:35;100596.66;;;16.33;67.66
19508;BME280;40157;42.566;27.526;2023-04-20T07:56:36;100577.25;;;16.37;66.28
19508;BME280;40157;42.566;27.526;2023-04-20T07:58:36;100561.34;;;16.40;65.07
19508;BME280;40157;42.566;27.526;2023-04-20T08:00:39;100561.34;;;16.40;65.32
19508;BME280;40157;42.566;27.526;2023-04-20T08:02:39;100573.63;;;16.44;64.35
19508;BME280;40157;42.566;27.526;2023-04-20T08:04:40;100561.22;;;16.51;64.78
19508;BME280;40157;42.566;27.526;2023-04-20T08:06:40;100542.00;;;16.34;63.56
19508;BME280;40157;42.566;27.526;2023-04-20T08:08:41;100499.03;;;16.08;64.41
19508;BME280;40157;42.566;27.526;2023-04-20T08:10:41;100555.91;;;16.53;64.01
19508;BME280;40157;42.566;27.526;2023-04-20T08:12:45;100589.22;;;16.71;63.43
19508;BME280;40157;42.566;27.526;2023-04-20T08:14:46;100588.31;;;16.73;63.72
19508;BME280;40157;42.566;27.526;2023-04-20T08:16:46;100584.78;;;16.74;63.33
19508;BME280;40157;42.566;27.526;2023-04-20T08:18:47;100511.16;;;16.31;62.63
19508;BME280;40157;42.566;27.526;2023-04-20T08:20:47;100576.88;;;16.70;63.32
19508;BME280;40157;42.566;27.526;2023-04-20T08:22:48;100560.22;;;16.60;63.75
19508;BME280;40157;42.566;27.526;2023-04-20T08:24:49;100590.09;;;16.71;63.56
19508;BME280;40157;42.566;27.526;2023-04-20T08:26:50;100567.06;;;16.79;64.04
19508;BME280;40157;42.566;27.526;2023-04-20T08:28:50;100553.06;;;16.68;63.82
19508;BME280;40157;42.566;27.526;2023-04-20T08:30:52;100569.75;;;16.76;63.72
19508;BME280;40157;42.566;27.526;2023-04-20T08:32:52;100514.50;;;16.47;64.03
19508;BME280;40157;42.566;27.526;2023-04-20T08:34:54;100589.06;;;16.88;63.49
19508;BME280;40157;42.566;27.526;2023-04-20T08:36:55;100557.44;;;16.74;62.75
19508;BME280;40157;42.566;27.526;2023-04-20T08:39:04;100560.00;;;16.77;63.37
19508;BME280;40157;42.566;27.526;2023-04-20T08:41:05;100549.41;;;16.78;63.76
19508;BME280;40157;42.566;27.526;2023-04-20T08:43:05;100547.72;;;16.73;62.98
19508;BME280;40157;42.566;27.526;2023-04-20T08:45:06;100490.75;;;16.42;62.78
19508;BME280;40157;42.566;27.526;2023-04-20T08:47:08;100555.75;;;16.65;62.65
19508;BME280;40157;42.566;27.526;2023-04-20T08:49:18;100548.53;;;16.79;62.67
19508;BME280;40157;42.566;27.526;2023-04-20T08:51:18;100574.88;;;16.90;62.50
19508;BME280;40157;42.566;27.526;2023-04-20T08:53:19;100563.53;;;16.80;63.06
19508;BME280;40157;42.566;27.526;2023-04-20T08:55:19;100583.75;;;16.88;62.96
19508;BME280;40157;42.566;27.526;2023-04-20T08:57:20;100531.00;;;16.69;65.18
19508;BME280;40157;42.566;27.526;2023-04-20T08:59:21;100559.13;;;16.79;65.38
19508;BME280;40157;42.566;27.526;2023-04-20T09:01:26;100577.47;;;16.96;66.12
19508;BME280;40157;42.566;27.526;2023-04-20T09:03:35;100577.41;;;17.01;65.61
19508;BME280;40157;42.566;27.526;2023-04-20T09:05:36;100560.72;;;16.96;65.41
19508;BME280;40157;42.566;27.526;2023-04-20T09:07:39;100550.22;;;16.87;64.76
19508;BME280;40157;42.566;27.526;2023-04-20T09:09:39;100562.38;;;17.03;64.81
19508;BME280;40157;42.566;27.526;2023-04-20T09:11:41;100550.03;;;17.02;65.73
19508;BME280;40157;42.566;27.526;2023-04-20T09:13:42;100578.13;;;17.15;63.58
19508;BME280;40157;42.566;27.526;2023-04-20T09:15:42;100536.03;;;16.94;62.07
19508;BME280;40157;42.566;27.526;2023-04-20T09:17:42;100510.72;;;16.68;61.77
19508;BME280;40157;42.566;27.526;2023-04-20T09:19:44;100585.09;;;17.23;61.93
19508;BME280;40157;42.566;27.526;2023-04-20T09:21:49;100587.69;;;17.27;61.77
19508;BME280;40157;42.566;27.526;2023-04-20T09:24:02;100591.19;;;17.29;61.54
19508;BME280;40157;42.566;27.526;2023-04-20T09:26:03;100573.63;;;17.20;62.29
19508;BME280;40157;42.566;27.526;2023-04-20T09:28:03;100561.28;;;17.19;61.67
19508;BME280;40157;42.566;27.526;2023-04-20T09:30:04;100581.41;;;17.33;63.01
19508;BME280;40157;42.566;27.526;2023-04-20T09:32:06;100571.66;;;17.33;63.33
19508;BME280;40157;42.566;27.526;2023-04-20T09:34:06;100544.47;;;17.24;60.74
19508;BME280;40157;42.566;27.526;2023-04-20T09:36:07;100566.53;;;17.23;58.91
19508;BME280;40157;42.566;27.526;2023-04-20T09:38:08;100575.28;;;17.28;58.40
19508;BME280;40157;42.566;27.526;2023-04-20T09:40:09;100500.69;;;16.95;59.19
19508;BME280;40157;42.566;27.526;2023-04-20T09:42:15;100571.56;;;17.41;58.79
19508;BME280;40157;42.566;27.526;2023-04-20T09:44:17;100526.84;;;17.19;59.12
19508;BME280;40157;42.566;27.526;2023-04-20T09:46:17;100528.59;;;17.20;59.06
19508;BME280;40157;42.566;27.526;2023-04-20T09:48:18;100580.34;;;17.45;60.19
19508;BME280;40157;42.566;27.526;2023-04-20T09:50:21;100569.75;;;17.45;60.41
19508;BME280;40157;42.566;27.526;2023-04-20T09:52:21;100569.00;;;17.35;60.62
19508;BME280;40157;42.566;27.526;2023-04-20T09:54:23;100501.28;;;17.17;60.66
19508;BME280;40157;42.566;27.526;2023-04-20T09:56:24;100558.97;;;17.59;60.34
19508;BME280;40157;42.566;27.526;2023-04-20T09:58:25;100544.06;;;17.48;60.75
19508;BME280;40157;42.566;27.526;2023-04-20T10:00:27;100526.50;;;17.41;59.48
19508;BME280;40157;42.566;27.526;2023-04-20T10:02:27;100499.13;;;17.42;60.14
19508;BME280;40157;42.566;27.526;2023-04-20T10:04:28;100534.09;;;17.66;59.78
19508;BME280;40157;42.566;27.526;2023-04-20T10:06:30;100533.13;;;17.70;59.25
19508;BME280;40157;42.566;27.526;2023-04-20T10:08:40;100560.47;;;17.73;58.71
19508;BME280;40157;42.566;27.526;2023-04-20T10:10:48;100480.78;;;17.28;59.60
19508;BME280;40157;42.566;27.526;2023-04-20T10:12:54;100523.56;;;17.60;60.21
19508;BME280;40157;42.566;27.526;2023-04-20T10:14:55;100515.56;;;17.63;60.88
19508;BME280;40157;42.566;27.526;2023-04-20T10:17:02;100550.53;;;17.88;60.01
19508;BME280;40157;42.566;27.526;2023-04-20T10:19:03;100549.69;;;17.84;58.63
19508;BME280;40157;42.566;27.526;2023-04-20T10:21:06;100516.41;;;17.65;59.03
19508;BME280;40157;42.566;27.526;2023-04-20T10:23:11;100461.34;;;17.28;58.77
19508;BME280;40157;42.566;27.526;2023-04-20T10:25:19;100443.03;;;17.14;59.08